Time;durP1;ratioP1;P1;durP2;ratioP2;P2;SDS_P1;SDS_P2;PMS_P1;PMS_P2;Temp;Humidity;BMP_temperature;BMP_pressure;BME280_temperature;BME280_humidity;BME280_pressure;Samples;Min_cycle;Max_cycle;Signal;HPM_P1;HPM_P2
2021/12/07 00:00:18;;;;;;;34.20;9.97;;;5.00;99.90;;;;;;5053294;28;20198;-60
2021/12/07 00:02:44;;;;;;;36.20;10.75;;;5.00;99.90;;;;;;5054669;28;20268;-60
2021/12/07 00:05:11;;;;;;;34.40;9.90;;;5.00;99.90;;;;;;5053116;28;20202;-60
2021/12/07 00:07:39;;;;;;;37.50;9.90;;;5.00;99.90;;;;;;5053409;28;20190;-60
2021/12/07 00:10:05;;;;;;;35.67;11.00;;;5.00;99.90;;;;;;5054215;28;20182;-60
2021/12/07 00:12:35;;;;;;;36.47;8.57;;;5.00;99.90;;;;;;5053511;28;20575;-60
2021/12/07 00:15:03;;;;;;;31.03;8.97;;;5.10;99.90;;;;;;5053871;28;20171;-61
2021/12/07 00:17:30;;;;;;;39.93;9.87;;;5.10;99.90;;;;;;5053229;28;20264;-60
2021/12/07 00:19:56;;;;;;;38.73;10.17;;;5.20;99.90;;;;;;5054004;28;20235;-60
2021/12/07 00:22:22;;;;;;;37.23;10.07;;;5.20;99.90;;;;;;5054297;28;20178;-60
2021/12/07 00:24:48;;;;;;;38.22;9.73;;;5.20;99.90;;;;;;5053064;28;20639;-60
2021/12/07 00:27:14;;;;;;;59.20;12.67;;;5.40;99.90;;;;;;5053279;28;20174;-60
2021/12/07 00:29:39;;;;;;;62.30;14.32;;;5.50;99.90;;;;;;5054471;28;20174;-60
2021/12/07 00:32:29;;;;;;;56.05;14.00;;;5.50;99.90;;;;;;5052301;28;20187;-60
2021/12/07 00:35:37;;;;;;;55.77;12.23;;;5.60;99.90;;;;;;5053232;28;20194;-60
2021/12/07 00:37:50;;;;;;;47.45;11.10;;;5.60;99.90;;;;;;5050918;28;20206;-60
2021/12/07 00:40:18;;;;;;;42.43;10.13;;;5.50;99.90;;;;;;5053432;28;20266;-60
2021/12/07 00:42:45;;;;;;;41.47;9.63;;;5.50;99.90;;;;;;5054246;28;20178;-60
2021/12/07 00:45:13;;;;;;;31.55;7.43;;;5.50;99.90;;;;;;5051928;28;20183;-60
2021/12/07 00:47:39;;;;;;;31.67;7.23;;;5.40;99.90;;;;;;5054439;28;20205;-60
2021/12/07 00:50:07;;;;;;;34.88;8.05;;;5.40;99.90;;;;;;5053432;28;20178;-60
2021/12/07 00:52:32;;;;;;;38.00;8.07;;;5.40;99.90;;;;;;5054198;28;20211;-60
2021/12/07 00:54:59;;;;;;;37.35;9.07;;;5.40;99.90;;;;;;5051979;28;20595;-60
2021/12/07 00:57:25;;;;;;;35.70;8.50;;;5.40;99.90;;;;;;5053569;28;20552;-60
2021/12/07 00:59:51;;;;;;;36.78;9.05;;;5.30;99.90;;;;;;5053722;28;20632;-60
2021/12/07 01:02:17;;;;;;;33.53;9.27;;;5.30;99.90;;;;;;5053338;28;20694;-60
2021/12/07 01:04:51;;;;;;;37.38;10.23;;;5.20;99.90;;;;;;5053805;28;20249;-60
2021/12/07 01:07:38;;;;;;;45.10;12.63;;;5.20;99.90;;;;;;5052397;28;20521;-60
2021/12/07 01:26:28;;;;;;;25.73;6.23;;;5.20;99.90;;;;;;5051938;28;20185;-60
2021/12/07 01:28:54;;;;;;;23.93;5.47;;;5.10;99.90;;;;;;5052156;28;20612;-60
2021/12/07 01:31:27;;;;;;;19.77;4.57;;;5.00;99.90;;;;;;5053024;28;20189;-60
2021/12/07 01:34:49;;;;;;;22.30;5.50;;;5.10;99.90;;;;;;5053480;28;20170;-60
2021/12/07 02:00:33;;;;;;;18.73;4.23;;;4.70;99.90;;;;;;5052577;28;20190;-60
2021/12/07 02:02:59;;;;;;;16.38;4.45;;;4.70;99.90;;;;;;5053113;28;20194;-60
2021/12/07 02:05:25;;;;;;;11.85;3.60;;;4.70;99.90;;;;;;5034489;28;20544;-60
2021/12/07 02:07:50;;;;;;;14.87;3.77;;;4.60;99.90;;;;;;5056645;28;20222;-60
2021/12/07 02:10:21;;;;;;;12.33;3.33;;;4.50;99.90;;;;;;5038718;28;20174;-60
2021/12/07 02:12:49;;;;;;;11.53;3.00;;;4.50;99.90;;;;;;5055691;28;20182;-60
2021/12/07 02:15:19;;;;;;;13.43;3.67;;;4.50;99.90;;;;;;5054986;28;20202;-60
2021/12/07 02:17:46;;;;;;;9.73;3.23;;;4.50;99.90;;;;;;5056837;28;20194;-60
2021/12/07 02:20:13;;;;;;;8.93;3.00;;;4.50;99.90;;;;;;5056276;28;20202;-60
2021/12/07 02:22:39;;;;;;;10.67;2.90;;;4.50;99.90;;;;;;5056424;28;20547;-60
2021/12/07 02:25:07;;;;;;;13.83;3.20;;;4.40;99.90;;;;;;5056064;28;20258;-60
2021/12/07 02:27:33;;;;;;;8.03;2.97;;;4.50;99.90;;;;;;5056426;28;20578;-60
2021/12/07 02:29:59;;;;;;;13.87;3.63;;;4.50;99.90;;;;;;5056033;28;20261;-60
2021/12/07 02:32:25;;;;;;;12.38;3.50;;;4.50;99.90;;;;;;5055289;28;20177;-60
2021/12/07 02:35:00;;;;;;;10.60;3.10;;;4.60;99.90;;;;;;5056420;28;20524;-60
2021/12/07 02:37:29;;;;;;;8.82;3.15;;;4.50;99.90;;;;;;5056623;28;20496;-60
2021/12/07 02:39:56;;;;;;;15.48;3.47;;;4.50;99.90;;;;;;5055465;28;20186;-60
2021/12/07 02:42:23;;;;;;;8.82;3.83;;;4.60;99.90;;;;;;5055075;28;20175;-60
2021/12/07 02:44:49;;;;;;;15.60;3.77;;;4.60;99.90;;;;;;5056351;28;20181;-60
2021/12/07 02:47:15;;;;;;;12.13;3.30;;;4.60;99.90;;;;;;5055953;28;20517;-60
2021/12/07 02:49:41;;;;;;;14.37;3.23;;;4.70;99.90;;;;;;5054926;28;20174;-60
2021/12/07 02:52:07;;;;;;;14.57;3.87;;;4.60;99.90;;;;;;5055734;28;20186;-60
2021/12/07 02:54:36;;;;;;;13.80;3.50;;;4.60;99.90;;;;;;5056316;28;20174;-60
2021/12/07 02:57:05;;;;;;;14.40;3.65;;;4.70;99.90;;;;;;5054409;28;20175;-60
2021/12/07 02:59:31;;;;;;;11.20;3.38;;;4.70;99.90;;;;;;5055939;28;20252;-60
2021/12/07 03:02:04;;;;;;;11.90;3.30;;;4.70;99.90;;;;;;5055466;28;20195;-60
2021/12/07 03:04:38;;;;;;;11.80;3.50;;;4.70;99.90;;;;;;5056114;28;20251;-60
2021/12/07 03:26:08;;;;;;;14.40;3.70;;;4.20;99.90;;;;;;5054091;28;20181;-60
2021/12/07 03:28:48;;;;;;;11.40;4.10;;;4.10;99.90;;;;;;5055477;28;20565;-60
2021/12/07 03:31:15;;;;;;;14.67;4.23;;;4.00;99.90;;;;;;5054779;28;20158;-60
2021/12/07 03:33:41;;;;;;;14.33;3.90;;;4.00;99.90;;;;;;5055285;28;20567;-60
2021/12/07 03:36:08;;;;;;;11.13;3.97;;;4.00;99.90;;;;;;5055141;28;20175;-60
2021/12/07 03:38:34;;;;;;;13.63;3.67;;;3.90;99.90;;;;;;5055166;28;20607;-60
2021/12/07 03:41:00;;;;;;;10.03;3.80;;;3.90;99.90;;;;;;5054835;28;20182;-60
2021/12/07 03:43:26;;;;;;;15.37;4.43;;;4.10;99.90;;;;;;5054235;28;20277;-60
2021/12/07 03:45:52;;;;;;;16.20;4.40;;;4.20;99.90;;;;;;5053343;28;20182;-60
2021/12/07 03:48:18;;;;;;;12.17;3.43;;;4.10;99.90;;;;;;5053814;28;20197;-60
2021/12/07 03:50:44;;;;;;;14.50;3.77;;;4.20;99.90;;;;;;5054348;28;20583;-60
2021/12/07 03:53:10;;;;;;;15.10;4.10;;;4.10;99.90;;;;;;5055238;28;20272;-60
2021/12/07 03:55:37;;;;;;;13.83;3.87;;;4.00;99.90;;;;;;5054459;28;20174;-60
2021/12/07 03:58:02;;;;;;;11.80;3.40;;;4.00;99.90;;;;;;5053826;28;20287;-60
2021/12/07 04:00:30;;;;;;;9.07;3.60;;;4.00;99.90;;;;;;5054297;28;20635;-60
2021/12/07 04:02:58;;;;;;;14.93;3.80;;;3.90;99.90;;;;;;5053600;28;20252;-60
2021/12/07 04:05:24;;;;;;;12.03;3.50;;;3.90;99.90;;;;;;5054230;28;20190;-60
2021/12/07 04:07:51;;;;;;;13.77;3.80;;;3.90;99.90;;;;;;5054693;28;20182;-60
2021/12/07 04:10:19;;;;;;;12.77;3.70;;;3.90;99.90;;;;;;5054247;28;20181;-60
2021/12/07 04:12:45;;;;;;;17.03;3.53;;;3.90;99.90;;;;;;5053666;28;20639;-60
2021/12/07 04:15:14;;;;;;;10.30;3.50;;;4.00;99.90;;;;;;5053673;28;20285;-60
2021/12/07 04:17:40;;;;;;;11.73;3.70;;;4.10;99.90;;;;;;5054454;28;20195;-60
2021/12/07 04:20:09;;;;;;;7.27;3.23;;;4.00;99.90;;;;;;5053826;28;20236;-60
2021/12/07 04:22:35;;;;;;;16.77;3.90;;;4.00;99.90;;;;;;5054657;28;20175;-60
2021/12/07 04:25:02;;;;;;;11.77;3.33;;;3.90;99.90;;;;;;5053929;28;20308;-60
2021/12/07 04:27:30;;;;;;;11.83;3.70;;;3.90;99.90;;;;;;5053966;28;20174;-60
2021/12/07 04:29:55;;;;;;;11.47;3.97;;;3.80;99.90;;;;;;5052555;28;20175;-60
2021/12/07 04:32:21;;;;;;;11.97;3.20;;;3.80;99.90;;;;;;5054149;28;20657;-60
2021/12/07 04:34:47;;;;;;;13.97;3.53;;;3.90;99.90;;;;;;5054390;28;20184;-60
2021/12/07 04:37:12;;;;;;;6.57;2.70;;;3.80;99.90;;;;;;5053447;28;20571;-60
2021/12/07 04:39:38;;;;;;;11.90;3.63;;;3.70;99.90;;;;;;5054298;28;20529;-60
2021/12/07 04:42:04;;;;;;;11.20;3.50;;;3.70;99.90;;;;;;5052346;28;20544;-60
2021/12/07 04:44:31;;;;;;;11.93;3.97;;;3.60;99.90;;;;;;5052636;28;20182;-60
2021/12/07 04:47:14;;;;;;;10.77;3.00;;;3.60;99.90;;;;;;5052298;28;20266;-60
2021/12/07 04:50:03;;;;;;;16.33;3.23;;;3.60;99.90;;;;;;5052914;28;20501;-60
2021/12/07 04:57:58;;;;;;;7.83;3.20;;;3.50;99.90;;;;;;5053843;28;20221;-60
2021/12/07 05:00:27;;;;;;;13.60;3.97;;;3.30;99.90;;;;;;5053229;28;20190;-60
2021/12/07 05:02:57;;;;;;;10.73;3.40;;;3.30;99.90;;;;;;5053931;28;20695;-60
2021/12/07 05:05:28;;;;;;;6.00;3.27;;;3.30;99.90;;;;;;5051750;28;20226;-60
2021/12/07 05:07:57;;;;;;;10.90;3.20;;;3.10;99.90;;;;;;5052694;28;20170;-60
2021/12/07 05:10:30;;;;;;;6.47;2.70;;;3.20;99.90;;;;;;5051956;28;20174;-60
2021/12/07 05:15:44;;;;;;;10.97;2.80;;;3.30;99.90;;;;;;5052942;28;20340;-60
2021/12/07 05:24:16;;;;;;;13.83;3.60;;;3.30;99.90;;;;;;5030990;28;20190;-60
2021/12/07 05:40:14;;;;;;;12.60;4.00;;;3.20;99.90;;;;;;5051823;28;20586;-60
2021/12/07 05:42:40;;;;;;;17.73;3.87;;;3.20;99.90;;;;;;5052820;28;20265;-60
2021/12/07 05:45:13;;;;;;;14.67;4.03;;;3.20;99.90;;;;;;5052439;28;20208;-60
2021/12/07 05:47:39;;;;;;;12.87;3.70;;;3.30;99.90;;;;;;5053370;28;20191;-60
2021/12/07 05:50:08;;;;;;;14.50;4.03;;;3.40;99.90;;;;;;5051410;28;20658;-60
2021/12/07 05:52:34;;;;;;;13.73;4.03;;;3.30;99.90;;;;;;5051644;28;20178;-60
2021/12/07 05:54:59;;;;;;;13.93;3.63;;;3.20;99.90;;;;;;5051217;28;20175;-60
2021/12/07 05:57:25;;;;;;;9.17;3.73;;;3.20;99.90;;;;;;5053146;28;20193;-60
2021/12/07 05:59:50;;;;;;;11.70;3.40;;;3.20;99.90;;;;;;5053086;28;20525;-60
2021/12/07 06:02:16;;;;;;;11.67;3.87;;;3.00;99.90;;;;;;5052754;28;20185;-59
2021/12/07 06:04:42;;;;;;;10.57;3.50;;;2.90;99.90;;;;;;5052873;28;20526;-60
2021/12/07 06:07:10;;;;;;;8.63;3.40;;;2.90;99.90;;;;;;5050880;28;20179;-60
2021/12/07 06:09:36;;;;;;;12.17;3.60;;;2.90;99.90;;;;;;5051773;28;20186;-59
2021/12/07 06:12:01;;;;;;;12.33;3.67;;;3.00;99.90;;;;;;5052488;28;20198;-59
2021/12/07 06:14:34;;;;;;;13.30;3.90;;;3.10;99.90;;;;;;5051781;28;20200;-59
2021/12/07 06:17:00;;;;;;;10.47;3.60;;;3.10;99.90;;;;;;5050965;28;20297;-59
2021/12/07 06:19:27;;;;;;;12.57;3.73;;;2.90;99.90;;;;;;5052984;28;20698;-59
2021/12/07 06:21:52;;;;;;;14.07;3.93;;;3.00;99.90;;;;;;5051834;28;20537;-59
2021/12/07 06:24:18;;;;;;;11.07;4.17;;;3.00;99.90;;;;;;5051553;28;20175;-59
2021/12/07 06:26:44;;;;;;;9.50;3.53;;;3.00;99.90;;;;;;5052512;28;20575;-59
2021/12/07 06:29:10;;;;;;;12.83;4.10;;;3.00;99.90;;;;;;5053017;28;20176;-59
2021/12/07 06:31:35;;;;;;;12.53;4.27;;;3.00;99.90;;;;;;5050590;28;20632;-59
2021/12/07 06:34:01;;;;;;;10.23;3.90;;;3.00;99.90;;;;;;5051299;28;20235;-60
2021/12/07 06:36:27;;;;;;;10.67;3.50;;;3.00;99.90;;;;;;5052482;28;20171;-60
2021/12/07 06:38:53;;;;;;;15.37;4.53;;;3.00;99.90;;;;;;5051752;28;20671;-60
2021/12/07 06:41:19;;;;;;;14.13;5.10;;;3.00;99.90;;;;;;5050684;28;20253;-60
2021/12/07 06:43:45;;;;;;;15.40;5.47;;;3.00;99.90;;;;;;5052524;28;20262;-60
2021/12/07 06:46:11;;;;;;;14.73;4.73;;;3.10;99.90;;;;;;5052178;28;20278;-60
2021/12/07 06:48:37;;;;;;;13.93;4.47;;;3.20;99.90;;;;;;5052730;28;20182;-60
2021/12/07 06:51:03;;;;;;;13.17;3.67;;;3.10;99.90;;;;;;5050680;28;20502;-60
2021/12/07 06:53:35;;;;;;;9.57;4.13;;;3.00;99.90;;;;;;5054003;28;20178;-60
2021/12/07 06:56:02;;;;;;;14.77;5.13;;;3.00;99.90;;;;;;5055683;28;20549;-60
2021/12/07 06:58:28;;;;;;;10.70;4.43;;;3.00;99.90;;;;;;5056077;28;20213;-60
2021/12/07 07:00:54;;;;;;;14.80;4.17;;;3.00;99.90;;;;;;5054981;28;20182;-59
2021/12/07 07:03:20;;;;;;;14.63;4.70;;;3.10;99.90;;;;;;5055026;28;20568;-60
2021/12/07 07:05:46;;;;;;;9.00;4.20;;;3.00;99.90;;;;;;5054173;28;20278;-59
2021/12/07 07:08:11;;;;;;;14.23;4.37;;;2.90;99.90;;;;;;5055163;28;20231;-59
2021/12/07 07:10:37;;;;;;;14.53;4.50;;;2.90;99.90;;;;;;5054032;28;20182;-59
2021/12/07 07:13:03;;;;;;;9.53;3.93;;;2.90;99.90;;;;;;5056056;28;20187;-59
2021/12/07 07:15:29;;;;;;;13.03;3.70;;;2.90;99.90;;;;;;5054924;28;20221;-59
2021/12/07 07:17:55;;;;;;;12.80;4.00;;;2.90;99.90;;;;;;5055793;28;20246;-59
2021/12/07 07:20:21;;;;;;;11.93;3.90;;;2.90;99.90;;;;;;5053766;28;20182;-59
2021/12/07 07:22:47;;;;;;;14.50;4.33;;;2.90;99.90;;;;;;5055783;28;20194;-59
2021/12/07 07:25:13;;;;;;;11.90;3.30;;;2.80;99.90;;;;;;5054739;28;20179;-59
2021/12/07 07:27:39;;;;;;;13.80;4.37;;;2.90;99.90;;;;;;5055463;28;20186;-59
2021/12/07 07:30:06;;;;;;;11.27;3.57;;;2.80;99.90;;;;;;5054982;28;20185;-59
2021/12/07 07:32:32;;;;;;;13.37;4.27;;;2.80;99.90;;;;;;5054442;28;20245;-60
2021/12/07 07:34:58;;;;;;;10.23;3.90;;;2.80;99.90;;;;;;5053727;28;20227;-60
2021/12/07 07:37:23;;;;;;;10.00;3.63;;;2.70;99.90;;;;;;5037566;28;20179;-59
2021/12/07 07:39:49;;;;;;;16.73;4.43;;;2.80;99.90;;;;;;5054924;28;20544;-59
2021/12/07 07:42:15;;;;;;;16.70;4.40;;;2.90;99.90;;;;;;5053762;28;20257;-60
2021/12/07 07:44:40;;;;;;;11.40;3.93;;;2.90;99.90;;;;;;5055692;28;20178;-59
2021/12/07 07:47:06;;;;;;;16.13;4.37;;;2.90;99.90;;;;;;5054021;28;20233;-60
2021/12/07 07:49:32;;;;;;;12.20;4.20;;;3.00;99.90;;;;;;5055420;28;20210;-59
2021/12/07 07:51:58;;;;;;;12.13;4.27;;;2.90;99.90;;;;;;5053523;28;20182;-59
2021/12/07 07:54:23;;;;;;;11.60;3.77;;;2.80;99.90;;;;;;5055129;28;20205;-59
2021/12/07 07:56:49;;;;;;;14.30;4.10;;;3.00;99.90;;;;;;5053048;28;20179;-59
2021/12/07 07:59:15;;;;;;;11.93;3.97;;;3.00;99.90;;;;;;5055123;28;20732;-59
2021/12/07 08:01:40;;;;;;;14.77;4.17;;;2.90;99.90;;;;;;5054420;28;20218;-59
2021/12/07 08:04:06;;;;;;;11.07;3.90;;;2.80;99.90;;;;;;5054423;28;20196;-59
2021/12/07 08:06:34;;;;;;;12.00;4.33;;;2.80;99.90;;;;;;5054089;28;20182;-60
2021/12/07 08:09:00;;;;;;;12.53;3.77;;;2.70;99.90;;;;;;5054840;28;20633;-59
2021/12/07 08:11:26;;;;;;;15.77;4.60;;;2.80;99.90;;;;;;5053010;28;20189;-59
2021/12/07 08:13:52;;;;;;;11.90;4.37;;;2.90;99.90;;;;;;5054536;28;20181;-59
2021/12/07 08:16:17;;;;;;;9.13;4.00;;;3.00;99.90;;;;;;5053767;28;20533;-60
2021/12/07 08:18:45;;;;;;;18.53;4.97;;;2.90;99.90;;;;;;5053378;28;20238;-59
2021/12/07 08:21:11;;;;;;;14.77;4.67;;;3.00;99.90;;;;;;5053768;28;20178;-60
2021/12/07 08:23:38;;;;;;;20.83;5.40;;;3.00;99.90;;;;;;5053307;28;20189;-59
2021/12/07 08:26:05;;;;;;;13.17;5.43;;;3.00;99.90;;;;;;5053752;28;20175;-60
2021/12/07 08:28:31;;;;;;;14.63;5.40;;;3.00;99.90;;;;;;5036396;28;20230;-59
2021/12/07 08:30:57;;;;;;;15.30;5.60;;;2.90;99.90;;;;;;5052896;28;20178;-59
2021/12/07 08:33:24;;;;;;;20.30;6.40;;;2.90;99.90;;;;;;5052803;28;20181;-59
2021/12/07 08:35:50;;;;;;;16.97;6.97;;;2.90;99.90;;;;;;5053751;28;20175;-59
2021/12/07 08:38:16;;;;;;;14.03;5.77;;;2.90;99.90;;;;;;5054025;28;20257;-59
2021/12/07 08:40:42;;;;;;;13.50;6.27;;;2.90;99.90;;;;;;5052488;28;20181;-59
2021/12/07 08:43:11;;;;;;;19.67;5.90;;;2.90;99.90;;;;;;5052811;28;20274;-59
2021/12/07 08:45:41;;;;;;;13.00;5.63;;;3.00;99.90;;;;;;5053312;28;20180;-59
2021/12/07 08:48:08;;;;;;;12.07;5.10;;;3.10;99.90;;;;;;5054176;28;20179;-59
2021/12/07 08:50:34;;;;;;;18.30;6.10;;;3.10;99.90;;;;;;5051857;28;20245;-59
2021/12/07 08:53:03;;;;;;;18.77;6.40;;;3.20;99.90;;;;;;5053956;28;20186;-59
2021/12/07 09:01:00;;;;;;;15.77;5.40;;;3.20;99.90;;;;;;5052340;28;20209;-60
2021/12/07 09:03:26;;;;;;;13.07;4.90;;;3.30;99.90;;;;;;5052504;28;20204;-60
2021/12/07 09:05:52;;;;;;;16.47;5.07;;;3.30;99.90;;;;;;5053188;28;20183;-60
2021/12/07 09:08:18;;;;;;;14.90;4.80;;;3.30;99.90;;;;;;5052767;28;20225;-59
2021/12/07 09:10:44;;;;;;;21.67;5.07;;;3.40;99.90;;;;;;5053355;28;20182;-59
2021/12/07 09:13:10;;;;;;;13.40;5.07;;;3.30;99.90;;;;;;5053800;28;20186;-60
2021/12/07 09:15:36;;;;;;;11.40;5.30;;;3.40;99.90;;;;;;5051949;28;20218;-60
2021/12/07 09:18:03;;;;;;;13.60;5.23;;;3.50;99.90;;;;;;5052445;28;20253;-59
2021/12/07 09:20:30;;;;;;;17.40;5.30;;;3.60;99.90;;;;;;5051786;28;20185;-59
2021/12/07 09:22:56;;;;;;;13.17;4.80;;;3.60;99.90;;;;;;5053403;28;20203;-59
2021/12/07 09:25:22;;;;;;;14.33;5.20;;;3.70;99.90;;;;;;5051715;28;20208;-60
2021/12/07 09:27:48;;;;;;;19.63;5.23;;;3.80;99.90;;;;;;5053807;28;20185;-59
2021/12/07 09:30:16;;;;;;;15.20;4.83;;;3.90;99.90;;;;;;5035111;28;20182;-59
2021/12/07 09:32:43;;;;;;;13.53;4.50;;;3.90;99.90;;;;;;5053257;28;20257;-59
2021/12/07 09:35:10;;;;;;;18.80;4.77;;;4.00;99.90;;;;;;5052532;28;20182;-59
2021/12/07 09:37:37;;;;;;;16.23;4.70;;;4.10;99.90;;;;;;5053402;28;20261;-59
2021/12/07 09:40:09;;;;;;;17.27;5.47;;;4.30;99.90;;;;;;5052527;28;20182;-60
2021/12/07 09:42:35;;;;;;;15.33;4.93;;;4.40;99.90;;;;;;5052232;28;20623;-59
2021/12/07 09:45:01;;;;;;;11.93;4.90;;;4.30;99.90;;;;;;5051156;28;20666;-59
2021/12/07 09:47:27;;;;;;;16.10;5.20;;;4.50;99.90;;;;;;5053337;28;20174;-59
2021/12/07 09:49:52;;;;;;;16.47;5.07;;;4.50;99.90;;;;;;5052495;28;20185;-59
2021/12/07 09:52:18;;;;;;;19.43;5.40;;;4.60;99.90;;;;;;5052048;28;20239;-59
2021/12/07 09:54:44;;;;;;;10.90;4.47;;;4.70;99.90;;;;;;5052978;28;20233;-59
2021/12/07 09:57:11;;;;;;;13.73;4.53;;;4.90;99.90;;;;;;5051550;28;20552;-59
2021/12/07 09:59:37;;;;;;;14.40;5.22;;;4.90;99.90;;;;;;5052861;28;20214;-60
2021/12/07 10:02:06;;;;;;;12.30;4.13;;;5.10;99.90;;;;;;5051390;28;20182;-59
2021/12/07 10:04:32;;;;;;;9.48;4.43;;;5.00;99.90;;;;;;5053087;28;20195;-60
2021/12/07 10:06:58;;;;;;;10.23;4.13;;;5.00;99.90;;;;;;5051300;28;20185;-59
2021/12/07 10:09:24;;;;;;;10.77;4.07;;;5.00;99.90;;;;;;5051734;28;20186;-59
2021/12/07 10:11:54;;;;;;;11.07;4.15;;;5.00;99.90;;;;;;5052154;28;20229;-59
2021/12/07 10:14:20;;;;;;;15.43;5.13;;;5.00;99.90;;;;;;5053207;28;20168;-60
2021/12/07 10:16:48;;;;;;;9.00;3.80;;;5.10;99.90;;;;;;5052465;28;20335;-59
2021/12/07 10:19:34;;;;;;;11.45;4.38;;;5.10;99.90;;;;;;5052872;28;20210;-59
2021/12/07 10:22:16;;;;;;;11.13;4.10;;;5.10;99.90;;;;;;5052352;28;20174;-59
2021/12/07 10:24:48;;;;;;;13.90;4.18;;;5.20;99.90;;;;;;5053101;28;20198;-59
2021/12/07 10:27:39;;;;;;;14.87;4.10;;;5.10;99.90;;;;;;5053232;28;20165;-60
2021/12/07 10:30:09;;;;;;;10.07;3.70;;;5.10;99.90;;;;;;5054917;28;20532;-60
2021/12/07 10:32:39;;;;;;;16.02;4.68;;;5.00;99.90;;;;;;5056688;28;20170;-59
2021/12/07 10:35:25;;;;;;;11.93;4.22;;;5.10;99.90;;;;;;5056312;28;20175;-59
2021/12/07 10:38:13;;;;;;;12.95;3.22;;;5.10;99.90;;;;;;5056713;28;20190;-59
2021/12/07 10:41:08;;;;;;;19.48;4.35;;;5.10;99.90;;;;;;5056000;28;20220;-59
2021/12/07 10:43:43;;;;;;;12.40;4.13;;;5.30;99.90;;;;;;5051918;28;20265;-59
2021/12/07 10:46:28;;;;;;;9.10;3.45;;;5.20;99.90;;;;;;5054511;28;20186;-59
2021/12/07 10:49:12;;;;;;;13.17;3.77;;;5.30;99.90;;;;;;5056233;28;20648;-60
2021/12/07 10:51:40;;;;;;;13.03;3.90;;;5.20;99.90;;;;;;5054496;28;20566;-59
2021/12/07 10:54:06;;;;;;;10.30;3.50;;;5.20;99.90;;;;;;5056338;28;20174;-60
2021/12/07 10:56:35;;;;;;;14.75;4.05;;;5.40;99.90;;;;;;5054495;28;20181;-59
2021/12/07 10:59:10;;;;;;;12.57;4.45;;;5.50;99.90;;;;;;5054606;28;20217;-59
2021/12/07 11:01:39;;;;;;;9.57;4.13;;;5.40;99.90;;;;;;5054398;28;20197;-59
2021/12/07 11:04:33;;;;;;;12.82;4.82;;;5.50;99.90;;;;;;5056459;28;20231;-59
2021/12/07 11:07:24;;;;;;;10.05;4.45;;;5.50;99.90;;;;;;5055498;28;20216;-60
2021/12/07 11:10:16;;;;;;;10.85;4.30;;;5.50;99.90;;;;;;5055839;28;20189;-60
2021/12/07 11:12:59;;;;;;;12.50;3.97;;;5.70;99.90;;;;;;5056063;28;20163;-59
2021/12/07 11:15:28;;;;;;;17.98;3.88;;;5.70;99.90;;;;;;5055076;28;20554;-60
2021/12/07 11:18:06;;;;;;;10.50;4.05;;;5.70;99.90;;;;;;5054254;28;20210;-59
2021/12/07 11:20:33;;;;;;;11.45;4.97;;;5.70;99.90;;;;;;5055259;28;20277;-59
2021/12/07 11:23:03;;;;;;;16.33;6.28;;;5.80;99.90;;;;;;5054622;28;20182;-59
2021/12/07 11:29:39;;;;;;;12.88;4.95;;;5.80;99.90;;;;;;5055195;28;20185;-59
2021/12/07 11:31:52;;;;;;;14.00;5.30;;;6.00;99.90;;;;;;5055100;28;20625;-59
2021/12/07 11:34:22;;;;;;;10.65;5.43;;;6.00;99.90;;;;;;5055895;28;20167;-60
2021/12/07 11:37:07;;;;;;;14.45;4.63;;;6.10;99.90;;;;;;5054643;28;20176;-59
2021/12/07 11:39:48;;;;;;;14.80;6.72;;;6.00;99.90;;;;;;5053875;28;20297;-59
2021/12/07 11:42:21;;;;;;;18.70;9.63;;;6.20;99.90;;;;;;5054864;28;20162;-60
2021/12/07 11:44:55;;;;;;;22.73;8.07;;;6.10;99.90;;;;;;5055624;28;20482;-59
2021/12/07 11:47:44;;;;;;;21.35;8.27;;;6.10;99.90;;;;;;5055073;28;20166;-59
2021/12/07 11:50:10;;;;;;;15.52;5.38;;;6.00;99.90;;;;;;5053538;28;20170;-59
2021/12/07 11:52:36;;;;;;;10.73;5.15;;;6.00;99.90;;;;;;5055041;28;20506;-59
2021/12/07 11:55:03;;;;;;;12.70;4.65;;;6.00;99.90;;;;;;5054310;28;20186;-60
2021/12/07 11:57:29;;;;;;;11.48;5.82;;;6.00;99.90;;;;;;5054019;28;20185;-60
2021/12/07 11:59:54;;;;;;;11.07;5.55;;;6.00;99.90;;;;;;5054569;28;20587;-59
2021/12/07 12:02:22;;;;;;;15.82;8.70;;;6.10;99.90;;;;;;5053538;28;20609;-59
2021/12/07 12:04:48;;;;;;;19.55;12.88;;;6.10;99.90;;;;;;5055099;28;20175;-60
2021/12/07 12:07:14;;;;;;;11.73;4.68;;;6.00;99.90;;;;;;5053988;28;20633;-59
2021/12/07 12:09:50;;;;;;;13.40;4.68;;;6.00;99.90;;;;;;5054973;28;20269;-59
2021/12/07 12:12:30;;;;;;;10.20;5.85;;;6.10;99.90;;;;;;5054401;28;20234;-59
2021/12/07 12:15:27;;;;;;;12.20;4.50;;;6.10;99.90;;;;;;5052443;28;20171;-60
2021/12/07 12:18:11;;;;;;;10.07;3.90;;;6.10;99.90;;;;;;5054805;28;20195;-59
2021/12/07 12:21:01;;;;;;;11.27;4.55;;;6.20;99.90;;;;;;5054122;28;20173;-59
2021/12/07 12:23:47;;;;;;;12.95;4.85;;;6.20;99.90;;;;;;5054524;28;20188;-59
2021/12/07 12:26:21;;;;;;;11.13;4.68;;;6.20;99.90;;;;;;5053992;28;20162;-59
2021/12/07 12:28:49;;;;;;;10.95;4.43;;;6.30;99.90;;;;;;5054511;28;20194;-60
2021/12/07 12:31:18;;;;;;;10.52;5.22;;;6.30;99.90;;;;;;5053620;28;20625;-60
2021/12/07 12:33:45;;;;;;;11.40;4.80;;;6.40;99.90;;;;;;5054189;28;20225;-59
2021/12/07 12:36:12;;;;;;;10.73;5.35;;;6.40;99.90;;;;;;5053735;28;20171;-59
2021/12/07 12:38:42;;;;;;;11.82;5.38;;;6.40;99.90;;;;;;5054067;28;20565;-60
2021/12/07 12:41:11;;;;;;;10.73;3.83;;;6.50;99.90;;;;;;5053751;28;20233;-60
2021/12/07 12:44:05;;;;;;;10.85;4.18;;;6.50;99.90;;;;;;5054036;28;20175;-60
2021/12/07 12:46:33;;;;;;;8.93;3.65;;;6.50;99.90;;;;;;5053283;28;20182;-60
2021/12/07 12:49:02;;;;;;;10.63;4.80;;;6.50;99.90;;;;;;5052973;28;20589;-60
2021/12/07 12:51:49;;;;;;;15.27;4.47;;;6.50;99.90;;;;;;5052190;28;20183;-60
2021/12/07 12:54:17;;;;;;;8.00;3.40;;;6.50;99.90;;;;;;5053940;28;20163;-60
2021/12/07 12:56:43;;;;;;;8.18;3.78;;;6.50;99.90;;;;;;5053337;28;20237;-60
2021/12/07 12:59:11;;;;;;;9.38;3.67;;;6.50;99.90;;;;;;5053968;28;20210;-60
2021/12/07 13:01:41;;;;;;;9.18;4.20;;;6.60;99.90;;;;;;5053029;28;20560;-60
2021/12/07 13:04:15;;;;;;;10.80;4.45;;;6.60;99.90;;;;;;5053817;28;20179;-60
2021/12/07 13:06:53;;;;;;;9.68;4.57;;;6.70;99.90;;;;;;5053071;28;20188;-59
2021/12/07 13:09:19;;;;;;;12.75;4.93;;;6.70;99.90;;;;;;5053548;28;20549;-59
2021/12/07 13:12:02;;;;;;;11.35;4.70;;;6.70;99.90;;;;;;5052900;28;20230;-59
2021/12/07 13:14:31;;;;;;;8.55;4.13;;;6.70;99.90;;;;;;5053603;28;20163;-59
2021/12/07 13:17:23;;;;;;;11.68;4.38;;;6.70;99.90;;;;;;5052667;28;20198;-59
2021/12/07 13:20:07;;;;;;;12.35;4.68;;;6.60;99.90;;;;;;5052356;28;20217;-60
2021/12/07 13:22:44;;;;;;;10.98;4.43;;;6.80;99.90;;;;;;5052467;28;20587;-60
2021/12/07 13:25:19;;;;;;;8.60;4.50;;;6.50;99.90;;;;;;5052830;28;20591;-60
2021/12/07 13:28:04;;;;;;;10.13;4.82;;;6.50;99.90;;;;;;5053515;28;20170;-60
2021/12/07 13:30:44;;;;;;;13.20;5.00;;;6.60;99.90;;;;;;5052809;28;20253;-60
2021/12/07 13:33:40;;;;;;;11.15;5.80;;;6.60;99.90;;;;;;5053174;28;20182;-60
2021/12/07 13:36:29;;;;;;;9.07;5.85;;;6.50;99.90;;;;;;5052660;28;20217;-60
2021/12/07 13:39:10;;;;;;;12.32;5.45;;;6.50;99.90;;;;;;5053114;28;20197;-60
2021/12/07 13:42:00;;;;;;;11.02;5.63;;;6.60;99.90;;;;;;5052568;28;20612;-60
2021/12/07 13:44:30;;;;;;;9.98;5.80;;;6.60;99.90;;;;;;5053473;28;20188;-60
2021/12/07 13:47:04;;;;;;;11.80;5.95;;;6.60;99.90;;;;;;5052267;28;20179;-60
2021/12/07 13:49:32;;;;;;;7.57;4.80;;;6.60;99.90;;;;;;5053119;28;20229;-59
2021/12/07 13:51:58;;;;;;;13.32;5.47;;;6.50;99.90;;;;;;5052469;28;20666;-60
2021/12/07 13:54:24;;;;;;;12.00;5.75;;;6.50;99.90;;;;;;5053288;28;20182;-59
2021/12/07 13:56:52;;;;;;;9.38;5.30;;;6.50;99.90;;;;;;5052392;28;20183;-60
2021/12/07 13:59:26;;;;;;;11.48;5.25;;;6.50;99.90;;;;;;5053163;28;20679;-60
2021/12/07 14:01:55;;;;;;;10.38;4.93;;;6.40;99.90;;;;;;5051598;28;20620;-59
2021/12/07 14:04:28;;;;;;;8.07;4.35;;;6.30;99.90;;;;;;5056930;28;20654;-59
2021/12/07 14:06:54;;;;;;;13.80;6.60;;;6.30;99.90;;;;;;5056360;28;20170;-60
2021/12/07 14:09:21;;;;;;;16.98;8.30;;;6.40;99.90;;;;;;5057191;28;20190;-60
2021/12/07 14:11:58;;;;;;;9.95;6.13;;;6.40;99.90;;;;;;5056460;28;20182;-59
2021/12/07 14:14:25;;;;;;;10.45;4.82;;;6.30;99.90;;;;;;5057162;28;20162;-60
2021/12/07 14:16:56;;;;;;;10.73;5.00;;;6.30;99.90;;;;;;5056235;28;20190;-60
2021/12/07 14:19:23;;;;;;;9.77;4.53;;;6.40;99.90;;;;;;5057021;28;20201;-59
2021/12/07 14:21:50;;;;;;;7.25;4.38;;;6.40;99.90;;;;;;5056573;28;20183;-60
2021/12/07 14:24:19;;;;;;;7.82;4.55;;;6.30;99.90;;;;;;5056686;28;20183;-60
2021/12/07 14:26:46;;;;;;;9.70;5.40;;;6.40;99.90;;;;;;5056147;28;20190;-59
2021/12/07 14:29:19;;;;;;;11.15;6.47;;;6.40;99.90;;;;;;5056779;28;20176;-60
2021/12/07 14:31:46;;;;;;;11.55;6.03;;;6.50;99.90;;;;;;5056162;28;20166;-59
2021/12/07 14:34:13;;;;;;;12.90;7.10;;;6.40;99.90;;;;;;5056436;28;20644;-60
2021/12/07 14:36:52;;;;;;;7.80;4.90;;;6.40;99.90;;;;;;5055539;28;20171;-59